Time,TemperatureF,DewpointF,PressureIn,WindDirection,WindDirectionDegrees,WindSpeedMPH,WindSpeedGustMPH,Humidity,HourlyPrecipIn,Conditions,Clouds,dailyrainin,SoftwareType,DateUTC
2013-04-24 00:00:00,56.5,50.0,29.82,SW,226,5.3,130.1,79,0.00,,---,0.00,VWS V14.01,2013-04-24 04:00:00,
2013-04-24 00:01:00,44.9,39.7,30.05,NNW,340,4.7,6.2,82,0.00,,---,0.01,VWS V14.01,2013-04-24 04:01:00,
2013-04-24 00:04:00,40.9,38.1,30.00,NW,305,3.9,8.3,90,0.00,,---,0.00,VWS V14.01,2013-04-24 04:04:00,
2013-04-24 00:06:00,45.0,39.8,30.05,NNW,339,4.6,6.2,82,0.00,,---,0.00,VWS V14.01,2013-04-24 04:06:00,
2013-04-24 00:11:00,45.2,40.0,30.05,NW,315,4.8,7.1,82,0.00,,---,0.00,VWS V14.01,2013-04-24 04:11:00,
2013-04-24 00:16:00,44.3,39.0,30.05,NNW,328,3.1,7.5,82,0.00,,---,0.00,VWS V14.01,2013-04-24 04:16:00,
2013-04-24 00:21:00,45.1,39.8,30.05,North,354,4.7,7.5,82,0.00,,---,0.00,VWS V14.01,2013-04-24 04:21:00,
2013-04-24 00:26:00,44.8,39.5,30.05,North,0,3.5,7.5,81,0.00,,---,0.00,VWS V14.01,2013-04-24 04:26:00,
2013-04-24 00:31:00,44.8,39.3,30.04,NNW,335,3.9,7.5,81,0.00,,---,0.00,VWS V14.01,2013-04-24 04:31:00,
2013-04-24 00:32:00,56.7,50.4,29.84,SW,217,6.7,130.1,79,0.00,,---,0.00,VWS V14.01,2013-04-24 04:32:00,
2013-04-24 00:36:00,45.1,39.6,30.04,WNW,300,3.8,7.5,81,0.00,,---,0.00,VWS V14.01,2013-04-24 04:36:00,
2013-04-24 00:41:00,44.9,39.4,30.05,NNW,329,2.7,7.5,81,0.00,,---,0.00,VWS V14.01,2013-04-24 04:41:00,
2013-04-24 00:46:00,44.5,39.2,30.04,NW,307,3.1,7.5,81,0.00,,---,0.00,VWS V14.01,2013-04-24 04:46:00,
2013-04-24 00:51:00,44.7,39.5,30.04,NNW,340,3.3,7.5,82,0.00,,---,0.00,VWS V14.01,2013-04-24 04:51:00,
2013-04-24 00:56:00,44.3,39.2,30.03,NNW,335,4.6,7.5,82,0.00,,---,0.00,VWS V14.01,2013-04-24 04:56:00,
2013-04-24 01:01:00,44.2,39.3,30.03,North,349,4.6,7.5,83,0.00,,---,0.00,VWS V14.01,2013-04-24 05:01:00,
2013-04-24 01:06:00,43.8,38.9,30.03,NNW,330,4.7,7.5,83,0.00,,---,0.00,VWS V14.01,2013-04-24 05:06:00,
2013-04-24 01:10:00,43.7,38.8,30.03,WNW,302,4.2,7.5,83,0.00,,---,0.00,VWS V14.01,2013-04-24 05:10:00,
2013-04-24 01:15:00,44.0,39.2,30.03,NW,309,4.7,7.5,83,0.00,,---,0.00,VWS V14.01,2013-04-24 05:15:00,
2013-04-24 01:20:00,43.0,38.3,30.03,NW,307,4.0,7.5,84,0.00,,---,0.00,VWS V14.01,2013-04-24 05:20:00,
2013-04-24 01:25:00,42.8,38.3,30.02,WNW,300,3.1,7.5,84,0.00,,---,0.00,VWS V14.01,2013-04-24 05:25:00,
2013-04-24 01:30:00,43.0,38.7,30.02,WNW,302,4.2,7.5,85,0.00,,---,0.00,VWS V14.01,2013-04-24 05:30:00,
2013-04-24 01:33:00,56.2,50.7,29.82,SSW,204,7.1,130.1,82,0.00,,---,0.00,VWS V14.01,2013-04-24 05:33:00,
2013-04-24 01:35:00,43.5,39.5,30.02,West,263,4.2,7.5,86,0.00,,---,0.00,VWS V14.01,2013-04-24 05:35:00,
2013-04-24 01:40:00,43.2,39.3,30.02,NW,325,5.1,7.8,86,0.00,,---,0.00,VWS V14.01,2013-04-24 05:40:00,
2013-04-24 01:45:00,42.9,39.0,30.02,NW,323,5.1,7.9,86,0.00,,---,0.00,VWS V14.01,2013-04-24 05:45:00,
2013-04-24 01:50:00,43.4,39.5,30.02,NNW,338,4.0,7.9,86,0.00,,---,0.00,VWS V14.01,2013-04-24 05:50:00,
2013-04-24 01:55:00,43.1,39.3,30.02,NW,323,4.4,7.9,86,0.00,,---,0.00,VWS V14.01,2013-04-24 05:55:00,
2013-04-24 02:01:00,43.0,39.2,30.02,NNW,347,4.9,7.9,86,0.00,,---,0.00,VWS V14.01,2013-04-24 06:01:00,
2013-04-24 02:05:00,42.8,39.0,30.01,NW,322,5.0,7.9,86,0.00,,---,0.00,VWS V14.01,2013-04-24 06:05:00,
2013-04-24 02:10:00,42.5,38.6,30.01,WNW,302,3.2,7.9,86,0.00,,---,0.00,VWS V14.01,2013-04-24 06:10:00,
2013-04-24 02:15:00,43.2,39.4,30.01,NW,305,6.1,7.9,86,0.00,,---,0.00,VWS V14.01,2013-04-24 06:15:00,
2013-04-24 02:20:00,42.6,38.9,30.01,NNW,329,4.6,8.3,86,0.00,,---,0.00,VWS V14.01,2013-04-24 06:20:00,
2013-04-24 02:25:00,42.5,38.8,30.01,NW,321,5.8,8.3,87,0.00,,---,0.00,VWS V14.01,2013-04-24 06:25:00,
2013-04-24 02:30:00,42.6,38.8,30.01,NNW,328,2.1,8.3,86,0.00,,---,0.00,VWS V14.01,2013-04-24 06:30:00,
2013-04-24 02:35:00,42.6,38.9,30.01,NNW,345,3.0,8.3,86,0.00,,---,0.00,VWS V14.01,2013-04-24 06:35:00,
2013-04-24 02:40:00,42.4,38.8,30.01,NNW,343,5.5,8.3,87,0.00,,---,0.00,VWS V14.01,2013-04-24 06:40:00,
2013-04-24 02:45:00,42.2,38.6,30.01,NNW,330,3.6,8.3,87,0.00,,---,0.00,VWS V14.01,2013-04-24 06:45:00,
2013-04-24 02:50:00,41.7,38.1,30.00,NNW,339,3.7,8.3,87,0.00,,---,0.00,VWS V14.01,2013-04-24 06:50:00,
2013-04-24 02:55:00,42.4,39.0,30.00,NNW,347,4.3,8.3,88,0.00,,---,0.00,VWS V14.01,2013-04-24 06:55:00,
2013-04-24 03:00:00,42.1,38.8,30.00,NNW,338,5.1,8.3,88,0.00,,---,0.00,VWS V14.01,2013-04-24 07:00:00,
2013-04-24 03:05:00,41.9,38.6,30.00,NNW,343,4.1,8.3,88,0.00,,---,0.00,VWS V14.01,2013-04-24 07:05:00,
2013-04-24 03:10:00,42.1,38.8,30.00,NW,319,2.9,8.3,88,0.00,,---,0.00,VWS V14.01,2013-04-24 07:10:00,
2013-04-24 03:15:00,42.0,38.7,30.00,NW,321,3.0,8.3,88,0.00,,---,0.00,VWS V14.01,2013-04-24 07:15:00,
2013-04-24 03:20:00,41.5,38.2,30.00,NNW,329,2.9,8.3,88,0.00,,---,0.00,VWS V14.01,2013-04-24 07:20:00,
2013-04-24 03:25:00,41.6,38.3,30.00,NW,305,2.7,8.3,88,0.00,,---,0.00,VWS V14.01,2013-04-24 07:25:00,
2013-04-24 03:30:00,41.8,38.5,30.00,NW,314,3.9,8.3,88,0.00,,---,0.00,VWS V14.01,2013-04-24 07:30:00,
2013-04-24 03:35:00,41.5,38.3,30.00,WNW,294,4.3,8.3,88,0.00,,---,0.00,VWS V14.01,2013-04-24 07:35:00,
2013-04-24 03:40:00,41.4,38.3,30.00,NW,308,3.2,8.3,89,0.00,,---,0.00,VWS V14.01,2013-04-24 07:40:00,
2013-04-24 03:45:00,41.5,38.5,30.00,WNW,300,2.5,8.3,89,0.00,,---,0.00,VWS V14.01,2013-04-24 07:45:00,
2013-04-24 03:50:00,40.7,37.8,30.00,NW,307,0.0,8.3,89,0.00,,---,0.00,VWS V14.01,2013-04-24 07:50:00,
2013-04-24 03:55:00,40.9,38.1,30.00,NW,319,3.6,8.3,90,0.00,,---,0.00,VWS V14.01,2013-04-24 07:55:00,
2013-04-24 04:00:00,40.7,38.0,30.00,NW,311,3.6,8.3,90,0.00,,---,0.00,VWS V14.01,2013-04-24 08:00:00,
2013-04-24 04:05:00,41.0,38.2,30.00,NW,311,4.2,8.3,90,0.00,,---,0.00,VWS V14.01,2013-04-24 08:05:00,
2013-04-24 04:10:00,41.0,38.2,30.00,WNW,292,1.7,8.3,90,0.00,,---,0.00,VWS V14.01,2013-04-24 08:10:00,
2013-04-24 04:15:00,41.0,38.1,30.00,NW,307,4.6,8.3,89,0.00,,---,0.00,VWS V14.01,2013-04-24 08:15:00,
2013-04-24 04:20:00,40.8,38.0,30.00,WNW,297,4.7,8.3,90,0.00,,---,0.00,VWS V14.01,2013-04-24 08:20:00,
2013-04-24 04:25:00,41.1,38.2,30.00,NNW,336,4.8,8.3,90,0.00,,---,0.00,VWS V14.01,2013-04-24 08:25:00,
2013-04-24 04:30:00,40.7,37.8,30.00,North,352,4.8,8.3,89,0.00,,---,0.00,VWS V14.01,2013-04-24 08:30:00,
2013-04-24 04:35:00,41.0,37.7,30.00,NNW,333,5.0,8.3,88,0.00,,---,0.00,VWS V14.01,2013-04-24 08:35:00,
2013-04-24 04:40:00,41.4,38.2,30.00,NW,305,5.0,8.3,88,0.00,,---,0.00,VWS V14.01,2013-04-24 08:40:00,
2013-04-24 04:45:00,41.3,38.0,30.00,NW,326,3.9,8.3,88,0.00,,---,0.00,VWS V14.01,2013-04-24 08:45:00,
2013-04-24 04:50:00,41.2,37.9,30.00,NW,307,3.7,8.3,88,0.00,,---,0.00,VWS V14.01,2013-04-24 08:50:00,
2013-04-24 04:55:00,41.3,38.0,30.00,NNW,335,2.8,8.3,88,0.00,,---,0.00,VWS V14.01,2013-04-24 08:55:00,
2013-04-24 05:00:00,40.8,37.5,30.00,WNW,301,3.8,8.3,88,0.00,,---,0.00,VWS V14.01,2013-04-24 09:00:00,
2013-04-24 05:05:00,41.2,38.0,30.00,NW,322,3.7,8.3,88,0.00,,---,0.00,VWS V14.01,2013-04-24 09:05:00,
2013-04-24 05:10:00,40.7,37.6,30.00,NNW,328,2.7,8.3,88,0.00,,---,0.00,VWS V14.01,2013-04-24 09:10:00,
2013-04-24 05:15:00,40.6,37.6,30.00,WNW,294,2.9,8.3,89,0.00,,---,0.00,VWS V14.01,2013-04-24 09:15:00,
2013-04-24 05:20:00,40.9,37.9,30.00,NW,314,2.5,130.1,89,0.00,,---,0.00,VWS V14.01,2013-04-24 09:20:00,
2013-04-24 05:25:00,40.6,37.5,30.00,NW,304,2.3,130.1,89,0.00,,---,0.00,VWS V14.01,2013-04-24 09:25:00,
2013-04-24 05:30:00,40.7,37.7,30.00,WNW,302,0.0,130.1,89,0.00,,---,0.00,VWS V14.01,2013-04-24 09:30:00,
2013-04-24 05:35:00,39.5,36.6,30.01,West,267,1.1,130.1,89,0.00,,---,0.00,VWS V14.01,2013-04-24 09:35:00,
2013-04-24 05:40:00,39.8,37.1,30.01,WNW,288,0.0,130.1,90,0.00,,---,0.00,VWS V14.01,2013-04-24 09:40:00,
2013-04-24 05:45:00,39.4,37.1,30.01,WNW,288,0.0,130.1,91,0.00,,---,0.00,VWS V14.01,2013-04-24 09:45:00,
2013-04-24 05:50:00,38.8,36.9,30.01,West,274,2.5,130.1,93,0.00,,---,0.00,VWS V14.01,2013-04-24 09:50:00,
2013-04-24 05:55:00,38.6,36.9,30.02,WNW,295,3.4,130.1,94,0.00,,---,0.00,VWS V14.01,2013-04-24 09:55:00,
2013-04-24 06:00:00,38.5,37.1,30.01,West,281,4.4,130.1,95,0.00,,---,0.00,VWS V14.01,2013-04-24 10:00:00,
2013-04-24 06:05:00,38.8,37.5,30.02,WNW,302,6.3,130.1,95,0.00,,---,0.00,VWS V14.01,2013-04-24 10:05:00,
2013-04-24 06:10:00,39.3,38.0,30.02,WNW,297,4.4,130.1,95,0.00,,---,0.00,VWS V14.01,2013-04-24 10:10:00,
2013-04-24 06:15:00,39.2,37.8,30.02,WNW,287,4.2,130.1,94,0.00,,---,0.00,VWS V14.01,2013-04-24 10:15:00,
2013-04-24 06:20:00,39.2,37.7,30.02,WNW,302,2.5,130.1,94,0.00,,---,0.00,VWS V14.01,2013-04-24 10:20:00,
2013-04-24 06:25:00,39.3,37.7,30.02,WNW,292,0.0,130.1,94,0.00,,---,0.00,VWS V14.01,2013-04-24 10:25:00,
2013-04-24 06:30:00,39.6,37.9,30.02,WNW,292,0.0,130.1,94,0.00,,---,0.00,VWS V14.01,2013-04-24 10:30:00,
2013-04-24 06:35:00,39.9,38.1,30.01,WNW,292,0.0,130.1,93,0.00,,---,0.00,VWS V14.01,2013-04-24 10:35:00,
2013-04-24 06:40:00,39.6,37.8,30.02,WNW,292,0.0,130.1,93,0.00,,---,0.00,VWS V14.01,2013-04-24 10:40:00,
2013-04-24 06:45:00,38.8,37.2,30.02,WNW,294,2.3,130.1,94,0.00,,---,0.00,VWS V14.01,2013-04-24 10:45:00,
2013-04-24 06:50:00,39.7,38.2,30.02,West,270,1.7,130.1,94,0.00,,---,0.00,VWS V14.01,2013-04-24 10:50:00,
2013-04-24 06:55:00,39.7,38.1,30.02,West,269,0.0,130.1,94,0.00,,---,0.00,VWS V14.01,2013-04-24 10:55:00,
2013-04-24 07:00:00,40.2,38.4,30.02,West,269,0.0,130.1,93,0.00,,---,0.00,VWS V14.01,2013-04-24 11:00:00,
2013-04-24 07:05:00,40.5,38.6,30.02,West,276,2.3,130.1,93,0.00,,---,0.00,VWS V14.01,2013-04-24 11:05:00,
2013-04-24 07:10:00,39.9,38.0,30.02,West,280,1.3,130.1,93,0.00,,---,0.00,VWS V14.01,2013-04-24 11:10:00,
2013-04-24 07:15:00,40.8,38.7,30.02,WNW,298,3.4,130.1,92,0.00,,---,0.00,VWS V14.01,2013-04-24 11:15:00,
2013-04-24 07:20:00,41.4,39.1,30.02,WNW,287,2.1,130.1,92,0.00,,---,0.00,VWS V14.01,2013-04-24 11:20:00,
2013-04-24 07:25:00,41.3,39.0,30.02,WNW,295,0.9,130.1,91,0.00,,---,0.00,VWS V14.01,2013-04-24 11:25:00,
2013-04-24 07:30:00,42.1,39.7,30.02,WSW,238,1.5,130.1,91,0.00,,---,0.00,VWS V14.01,2013-04-24 11:30:00,
2013-04-24 07:35:00,42.3,39.4,30.02,West,270,3.0,130.1,89,0.00,,---,0.00,VWS V14.01,2013-04-24 11:35:00,
2013-04-24 07:40:00,43.4,39.8,30.02,WSW,257,4.7,130.1,87,0.00,,---,0.00,VWS V14.01,2013-04-24 11:40:00,
2013-04-24 07:45:00,42.6,38.4,30.02,West,271,3.7,130.1,85,0.00,,---,0.00,VWS V14.01,2013-04-24 11:45:00,
2013-04-24 07:50:00,43.3,39.2,30.02,WNW,283,1.6,130.1,85,0.00,,---,0.00,VWS V14.01,2013-04-24 11:50:00,
2013-04-24 07:55:00,44.1,39.8,30.02,West,266,3.6,130.1,85,0.00,,---,0.00,VWS V14.01,2013-04-24 11:55:00,
2013-04-24 08:00:00,43.8,39.1,30.02,NW,305,3.0,130.1,83,0.00,,---,0.00,VWS V14.01,2013-04-24 12:00:00,
2013-04-24 08:05:00,44.3,39.7,30.02,West,278,2.2,130.1,84,0.00,,---,0.00,VWS V14.01,2013-04-24 12:05:00,
2013-04-24 08:10:00,44.5,39.4,30.02,West,281,4.8,130.1,82,0.00,,---,0.00,VWS V14.01,2013-04-24 12:10:00,
2013-04-24 08:15:00,44.4,39.3,30.02,West,259,3.9,130.1,82,0.00,,---,0.00,VWS V14.01,2013-04-24 12:15:00,
2013-04-24 08:20:00,45.6,39.8,30.01,West,266,3.9,130.1,80,0.00,,---,0.00,VWS V14.01,2013-04-24 12:20:00,
2013-04-24 08:25:00,45.8,39.8,30.01,WNW,295,2.9,130.1,80,0.00,,---,0.00,VWS V14.01,2013-04-24 12:25:00,
2013-04-24 08:30:00,46.3,40.5,30.01,NNW,332,0.0,130.1,80,0.00,,---,0.00,VWS V14.01,2013-04-24 12:30:00,
2013-04-24 08:35:00,46.9,40.3,30.00,West,281,3.2,130.1,78,0.00,,---,0.00,VWS V14.01,2013-04-24 12:35:00,
2013-04-24 08:40:00,47.4,40.4,30.00,WSW,242,4.3,130.1,76,0.00,,---,0.00,VWS V14.01,2013-04-24 12:40:00,
2013-04-24 08:45:00,47.3,39.9,30.00,SW,215,3.0,130.1,75,0.00,,---,0.00,VWS V14.01,2013-04-24 12:45:00,
2013-04-24 08:50:00,48.1,40.6,30.00,WNW,288,4.2,130.1,75,0.00,,---,0.00,VWS V14.01,2013-04-24 12:50:00,
2013-04-24 08:54:00,48.8,41.1,30.00,West,273,6.9,130.1,75,0.00,,---,0.00,VWS V14.01,2013-04-24 12:54:00,
2013-04-24 08:59:00,49.5,41.3,29.99,West,271,3.5,130.1,73,0.00,,---,0.00,VWS V14.01,2013-04-24 12:59:00,
2013-04-24 09:04:00,49.6,41.2,29.99,West,266,10.1,130.1,73,0.00,,---,0.00,VWS V14.01,2013-04-24 13:04:00,
2013-04-24 09:09:00,49.5,41.2,29.99,West,269,3.4,130.1,73,0.00,,---,0.00,VWS V14.01,2013-04-24 13:09:00,
2013-04-24 09:14:00,50.4,41.8,29.99,West,269,3.8,130.1,72,0.00,,---,0.00,VWS V14.01,2013-04-24 13:14:00,
2013-04-24 09:19:00,50.8,42.1,29.99,West,264,7.5,130.1,72,0.00,,---,0.00,VWS V14.01,2013-04-24 13:19:00,
2013-04-24 09:24:00,51.2,42.0,29.99,West,280,7.9,130.1,71,0.00,,---,0.00,VWS V14.01,2013-04-24 13:24:00,
2013-04-24 09:29:00,51.8,42.9,29.99,WNW,285,3.8,130.1,72,0.00,,---,0.00,VWS V14.01,2013-04-24 13:29:00,
2013-04-24 09:34:00,52.9,44.0,29.98,NW,308,0.3,130.1,72,0.00,,---,0.00,VWS V14.01,2013-04-24 13:34:00,
2013-04-24 09:39:00,53.2,43.3,29.98,WNW,284,10.5,130.1,69,0.00,,---,0.00,VWS V14.01,2013-04-24 13:39:00,
2013-04-24 09:44:00,53.5,43.4,29.98,WSW,250,4.7,130.1,69,0.00,,---,0.00,VWS V14.01,2013-04-24 13:44:00,
2013-04-24 09:49:00,53.8,43.7,29.98,West,276,2.1,130.1,68,0.00,,---,0.00,VWS V14.01,2013-04-24 13:49:00,
2013-04-24 09:54:00,53.6,42.8,29.98,West,267,6.0,130.1,67,0.00,,---,0.00,VWS V14.01,2013-04-24 13:54:00,
2013-04-24 09:59:00,53.8,43.1,29.98,WSW,242,7.3,130.1,67,0.00,,---,0.00,VWS V14.01,2013-04-24 13:59:00,
2013-04-24 10:04:00,54.2,43.3,29.98,West,280,9.6,130.1,67,0.00,,---,0.00,VWS V14.01,2013-04-24 14:04:00,
2013-04-24 10:09:00,55.0,43.8,29.98,WSW,239,4.5,130.1,66,0.00,,---,0.00,VWS V14.01,2013-04-24 14:09:00,
2013-04-24 10:14:00,54.8,43.0,29.98,WSW,245,9.4,130.1,64,0.00,,---,0.00,VWS V14.01,2013-04-24 14:14:00,
2013-04-24 10:19:00,56.0,44.3,29.97,WSW,249,4.0,130.1,65,0.00,,---,0.00,VWS V14.01,2013-04-24 14:19:00,
2013-04-24 10:24:00,56.4,44.3,29.97,NW,321,4.3,130.1,64,0.00,,---,0.00,VWS V14.01,2013-04-24 14:24:00,
2013-04-24 10:29:00,56.7,44.1,29.97,WSW,242,7.9,130.1,63,0.00,,---,0.00,VWS V14.01,2013-04-24 14:29:00,
2013-04-24 10:34:00,56.9,44.0,29.97,WSW,253,7.6,130.1,62,0.00,,---,0.00,VWS V14.01,2013-04-24 14:34:00,
2013-04-24 10:39:00,57.2,43.6,29.97,West,270,5.2,130.1,60,0.00,,---,0.00,VWS V14.01,2013-04-24 14:39:00,
2013-04-24 10:44:00,57.4,43.5,29.97,WSW,240,10.9,130.1,60,0.00,,---,0.00,VWS V14.01,2013-04-24 14:44:00,
2013-04-24 10:49:00,58.0,43.2,29.97,WSW,245,11.2,130.1,58,0.00,,---,0.00,VWS V14.01,2013-04-24 14:49:00,
2013-04-24 10:54:00,57.9,43.1,29.97,WSW,255,8.6,130.1,58,0.00,,---,0.00,VWS V14.01,2013-04-24 14:54:00,
2013-04-24 10:59:00,58.7,44.4,29.97,SW,222,8.3,130.1,59,0.00,,---,0.00,VWS V14.01,2013-04-24 14:59:00,
2013-04-24 11:04:00,58.8,44.2,29.96,WSW,256,5.0,130.1,58,0.00,,---,0.00,VWS V14.01,2013-04-24 15:04:00,
2013-04-24 11:09:00,59.4,44.3,29.96,SW,226,5.7,130.1,57,0.00,,---,0.00,VWS V14.01,2013-04-24 15:09:00,
2013-04-24 11:14:00,59.5,43.9,29.95,WNW,294,3.7,130.1,56,0.00,,---,0.00,VWS V14.01,2013-04-24 15:14:00,
2013-04-24 11:19:00,59.4,43.8,29.96,WSW,253,7.4,130.1,56,0.00,,---,0.00,VWS V14.01,2013-04-24 15:19:00,
2013-04-24 11:24:00,59.9,44.3,29.95,SW,228,3.0,130.1,56,0.00,,---,0.00,VWS V14.01,2013-04-24 15:24:00,
2013-04-24 11:29:00,60.9,45.2,29.95,WSW,245,13.8,130.1,56,0.00,,---,0.00,VWS V14.01,2013-04-24 15:29:00,
2013-04-24 11:34:00,60.4,44.2,29.95,West,264,8.1,130.1,55,0.00,,---,0.00,VWS V14.01,2013-04-24 15:34:00,
2013-04-24 11:39:00,60.2,44.4,29.95,WSW,243,7.8,130.1,56,0.00,,---,0.00,VWS V14.01,2013-04-24 15:39:00,
2013-04-24 11:44:00,60.5,44.6,29.94,NW,309,6.4,130.1,56,0.00,,---,0.00,VWS V14.01,2013-04-24 15:44:00,
2013-04-24 11:49:00,61.6,45.7,29.94,WSW,249,10.0,130.1,56,0.00,,---,0.00,VWS V14.01,2013-04-24 15:49:00,
2013-04-24 11:54:00,61.6,44.9,29.94,WNW,285,6.5,130.1,54,0.00,,---,0.00,VWS V14.01,2013-04-24 15:54:00,
2013-04-24 11:59:00,61.4,45.4,29.93,West,266,7.8,130.1,56,0.00,,---,0.00,VWS V14.01,2013-04-24 15:59:00,
2013-04-24 12:04:00,61.6,45.9,29.92,WSW,249,10.5,130.1,56,0.00,,---,0.00,VWS V14.01,2013-04-24 16:04:00,
2013-04-24 12:09:00,61.6,45.7,29.92,West,281,3.7,130.1,56,0.00,,---,0.00,VWS V14.01,2013-04-24 16:09:00,
2013-04-24 12:14:00,61.8,45.8,29.92,SSW,204,8.3,130.1,56,0.00,,---,0.00,VWS V14.01,2013-04-24 16:14:00,
2013-04-24 12:19:00,62.1,45.8,29.92,WNW,285,7.1,130.1,55,0.00,,---,0.00,VWS V14.01,2013-04-24 16:19:00,
2013-04-24 12:24:00,63.1,46.6,29.92,West,274,7.7,130.1,55,0.00,,---,0.00,VWS V14.01,2013-04-24 16:24:00,
2013-04-24 12:29:00,63.0,45.3,29.92,West,266,11.1,130.1,52,0.00,,---,0.00,VWS V14.01,2013-04-24 16:29:00,
2013-04-24 12:34:00,62.9,46.0,29.91,WSW,256,3.6,130.1,54,0.00,,---,0.00,VWS V14.01,2013-04-24 16:34:00,
2013-04-24 12:39:00,63.6,45.6,29.90,SW,221,7.5,130.1,52,0.00,,---,0.00,VWS V14.01,2013-04-24 16:39:00,
2013-04-24 12:44:00,64.0,46.3,29.90,SW,217,4.7,130.1,53,0.00,,---,0.00,VWS V14.01,2013-04-24 16:44:00,
2013-04-24 12:49:00,64.4,46.3,29.90,SW,214,13.4,130.1,52,0.00,,---,0.00,VWS V14.01,2013-04-24 16:49:00,
2013-04-24 12:54:00,64.2,45.9,29.90,SSW,211,3.5,130.1,51,0.00,,---,0.00,VWS V14.01,2013-04-24 16:54:00,
2013-04-24 12:59:00,64.2,45.7,29.90,SW,232,8.9,130.1,51,0.00,,---,0.00,VWS V14.01,2013-04-24 16:59:00,
2013-04-24 13:04:00,64.6,45.7,29.89,WSW,253,9.3,130.1,50,0.00,,---,0.00,VWS V14.01,2013-04-24 17:04:00,
2013-04-24 13:09:00,65.0,46.0,29.89,WSW,240,7.8,130.1,50,0.00,,---,0.00,VWS V14.01,2013-04-24 17:09:00,
2013-04-24 13:14:00,65.1,46.1,29.89,SW,235,4.5,130.1,50,0.00,,---,0.00,VWS V14.01,2013-04-24 17:14:00,
2013-04-24 13:19:00,65.5,45.8,29.88,SW,229,8.0,130.1,49,0.00,,---,0.00,VWS V14.01,2013-04-24 17:19:00,
2013-04-24 13:24:00,65.2,45.2,29.88,WNW,302,8.2,130.1,48,0.00,,---,0.00,VWS V14.01,2013-04-24 17:24:00,
2013-04-24 13:29:00,66.1,46.2,29.87,WSW,252,13.2,130.1,49,0.00,,---,0.00,VWS V14.01,2013-04-24 17:29:00,
2013-04-24 13:34:00,66.3,46.0,29.87,WSW,246,6.9,130.1,48,0.00,,---,0.00,VWS V14.01,2013-04-24 17:34:00,
2013-04-24 13:39:00,66.7,46.5,29.87,SSE,160,3.3,130.1,48,0.00,,---,0.00,VWS V14.01,2013-04-24 17:39:00,
2013-04-24 13:44:00,67.2,47.2,29.87,WSW,239,6.0,130.1,49,0.00,,---,0.00,VWS V14.01,2013-04-24 17:44:00,
2013-04-24 13:49:00,66.9,46.3,29.87,SSW,207,9.4,130.1,47,0.00,,---,0.00,VWS V14.01,2013-04-24 17:49:00,
2013-04-24 13:54:00,67.3,46.4,29.87,SW,217,6.3,130.1,47,0.00,,---,0.00,VWS V14.01,2013-04-24 17:54:00,
2013-04-24 13:59:00,67.0,46.0,29.86,SW,231,6.2,130.1,47,0.00,,---,0.00,VWS V14.01,2013-04-24 17:59:00,
2013-04-24 14:04:00,67.5,46.2,29.86,WSW,240,9.7,130.1,46,0.00,,---,0.00,VWS V14.01,2013-04-24 18:04:00,
2013-04-24 14:09:00,68.1,47.8,29.86,SSW,211,7.3,130.1,48,0.00,,---,0.00,VWS V14.01,2013-04-24 18:09:00,
2013-04-24 14:14:00,67.9,46.5,29.86,SSW,205,9.7,130.1,46,0.00,,---,0.00,VWS V14.01,2013-04-24 18:14:00,
2013-04-24 14:19:00,68.0,46.6,29.86,SW,225,3.5,130.1,46,0.00,,---,0.00,VWS V14.01,2013-04-24 18:19:00,
2013-04-24 14:24:00,67.9,46.3,29.85,SW,222,11.2,130.1,46,0.00,,---,0.00,VWS V14.01,2013-04-24 18:24:00,
2013-04-24 14:29:00,67.7,45.4,29.84,West,263,8.2,130.1,45,0.00,,---,0.00,VWS V14.01,2013-04-24 18:29:00,
2013-04-24 14:33:00,68.2,46.2,29.84,SSW,198,4.6,130.1,45,0.00,,---,0.00,VWS V14.01,2013-04-24 18:33:00,
2013-04-24 14:38:00,68.9,46.5,29.84,SW,232,7.1,130.1,45,0.00,,---,0.00,VWS V14.01,2013-04-24 18:38:00,
2013-04-24 14:43:00,68.4,45.6,29.83,South,191,7.0,130.1,44,0.00,,---,0.00,VWS V14.01,2013-04-24 18:43:00,
2013-04-24 14:48:00,69.6,46.4,29.83,SSW,210,6.6,130.1,43,0.00,,---,0.00,VWS V14.01,2013-04-24 18:48:00,
2013-04-24 14:53:00,69.5,47.4,29.83,SSW,202,11.9,130.1,45,0.00,,---,0.00,VWS V14.01,2013-04-24 18:53:00,
2013-04-24 14:58:00,68.4,47.7,29.82,South,169,12.2,130.1,48,0.00,,---,0.00,VWS V14.01,2013-04-24 18:58:00,
2013-04-24 15:03:00,68.1,48.5,29.82,South,170,12.7,130.1,50,0.00,,---,0.00,VWS V14.01,2013-04-24 19:03:00,
2013-04-24 15:08:00,69.4,49.2,29.82,SSW,194,6.9,130.1,48,0.00,,---,0.00,VWS V14.01,2013-04-24 19:08:00,
2013-04-24 15:13:00,68.1,48.2,29.81,South,169,9.4,130.1,49,0.00,,---,0.00,VWS V14.01,2013-04-24 19:13:00,
2013-04-24 15:18:00,68.2,48.6,29.81,South,184,9.4,130.1,50,0.00,,---,0.00,VWS V14.01,2013-04-24 19:18:00,
2013-04-24 15:23:00,68.3,49.0,29.81,SSE,163,8.3,130.1,50,0.00,,---,0.00,VWS V14.01,2013-04-24 19:23:00,
2013-04-24 15:28:00,68.0,48.7,29.81,South,172,11.7,130.1,50,0.00,,---,0.00,VWS V14.01,2013-04-24 19:28:00,
2013-04-24 15:33:00,67.2,48.8,29.81,SSE,166,12.1,130.1,52,0.00,,---,0.00,VWS V14.01,2013-04-24 19:33:00,
2013-04-24 15:38:00,67.2,49.2,29.81,South,190,12.5,130.1,52,0.00,,---,0.00,VWS V14.01,2013-04-24 19:38:00,
2013-04-24 15:43:00,67.3,49.2,29.81,South,172,10.0,130.1,52,0.00,,---,0.00,VWS V14.01,2013-04-24 19:43:00,
2013-04-24 15:48:00,67.8,49.2,29.80,SW,221,6.6,130.1,51,0.00,,---,0.00,VWS V14.01,2013-04-24 19:48:00,
2013-04-24 15:53:00,67.8,49.0,29.80,South,187,9.8,130.1,51,0.00,,---,0.00,VWS V14.01,2013-04-24 19:53:00,
2013-04-24 15:58:00,67.8,48.8,29.79,SSW,200,8.9,130.1,51,0.00,,---,0.00,VWS V14.01,2013-04-24 19:58:00,
2013-04-24 16:03:00,68.1,49.1,29.79,SSW,197,11.5,130.1,51,0.00,,---,0.00,VWS V14.01,2013-04-24 20:03:00,
2013-04-24 16:08:00,68.2,49.0,29.79,South,187,11.1,130.1,50,0.00,,---,0.00,VWS V14.01,2013-04-24 20:08:00,
2013-04-24 16:13:00,68.5,49.3,29.79,SSW,207,13.8,130.1,50,0.00,,---,0.00,VWS V14.01,2013-04-24 20:13:00,
2013-04-24 16:18:00,67.8,48.2,29.79,SSW,202,11.2,130.1,49,0.00,,---,0.00,VWS V14.01,2013-04-24 20:18:00,
2013-04-24 16:23:00,67.9,49.1,29.80,WSW,240,10.1,130.1,51,0.00,,---,0.00,VWS V14.01,2013-04-24 20:23:00,
2013-04-24 16:28:00,67.8,49.0,29.80,South,183,17.2,130.1,51,0.00,,---,0.00,VWS V14.01,2013-04-24 20:28:00,
2013-04-24 16:33:00,67.0,49.0,29.80,SSE,159,13.6,130.1,52,0.00,,---,0.00,VWS V14.01,2013-04-24 20:33:00,
2013-04-24 16:38:00,66.7,49.5,29.80,South,179,10.9,130.1,54,0.00,,---,0.00,VWS V14.01,2013-04-24 20:38:00,
2013-04-24 16:43:00,66.7,49.0,29.80,SSW,195,8.3,130.1,53,0.00,,---,0.00,VWS V14.01,2013-04-24 20:43:00,
2013-04-24 16:48:00,66.8,49.5,29.80,SSW,208,6.4,130.1,54,0.00,,---,0.00,VWS V14.01,2013-04-24 20:48:00,
2013-04-24 16:53:00,66.3,48.6,29.80,South,181,14.5,130.1,53,0.00,,---,0.00,VWS V14.01,2013-04-24 20:53:00,
2013-04-24 16:58:00,66.0,49.2,29.80,South,188,10.7,130.1,55,0.00,,---,0.00,VWS V14.01,2013-04-24 20:58:00,
2013-04-24 17:03:00,65.7,49.1,29.79,South,183,16.8,130.1,55,0.00,,---,0.00,VWS V14.01,2013-04-24 21:03:00,
2013-04-24 17:08:00,66.6,50.0,29.79,South,191,8.5,130.1,55,0.00,,---,0.00,VWS V14.01,2013-04-24 21:08:00,
2013-04-24 17:13:00,65.6,49.1,29.79,SSW,212,8.5,130.1,55,0.00,,---,0.00,VWS V14.01,2013-04-24 21:13:00,
2013-04-24 17:18:00,65.8,49.4,29.80,SSE,160,7.7,130.1,55,0.00,,---,0.00,VWS V14.01,2013-04-24 21:18:00,
2013-04-24 17:23:00,65.6,49.6,29.80,SW,219,6.7,130.1,56,0.00,,---,0.00,VWS V14.01,2013-04-24 21:23:00,
2013-04-24 17:28:00,65.6,49.6,29.80,SSE,166,8.5,130.1,56,0.00,,---,0.00,VWS V14.01,2013-04-24 21:28:00,
2013-04-24 17:33:00,65.0,49.3,29.80,South,169,13.1,130.1,57,0.00,,---,0.00,VWS V14.01,2013-04-24 21:33:00,
2013-04-24 17:38:00,65.0,49.9,29.80,SSW,195,12.9,130.1,58,0.00,,---,0.00,VWS V14.01,2013-04-24 21:38:00,
2013-04-24 17:43:00,64.0,49.4,29.79,South,179,12.3,130.1,59,0.00,,---,0.00,VWS V14.01,2013-04-24 21:43:00,
2013-04-24 17:48:00,63.7,49.2,29.79,SSW,195,19.9,130.1,59,0.00,,---,0.00,VWS V14.01,2013-04-24 21:48:00,
2013-04-24 17:53:00,63.7,49.5,29.79,ESE,115,16.8,130.1,60,0.00,,---,0.00,VWS V14.01,2013-04-24 21:53:00,
2013-04-24 17:58:00,63.0,49.1,29.79,SSW,201,10.5,130.1,60,0.00,,---,0.00,VWS V14.01,2013-04-24 21:58:00,
2013-04-24 18:03:00,62.8,49.3,29.79,SE,139,13.2,130.1,61,0.00,,---,0.00,VWS V14.01,2013-04-24 22:03:00,
2013-04-24 18:08:00,62.6,49.4,29.78,South,186,11.3,130.1,62,0.00,,---,0.00,VWS V14.01,2013-04-24 22:08:00,
2013-04-24 18:13:00,62.0,49.1,29.79,SSE,153,11.3,130.1,62,0.00,,---,0.00,VWS V14.01,2013-04-24 22:13:00,
2013-04-24 18:18:00,61.8,49.3,29.79,South,176,13.4,130.1,63,0.00,,---,0.00,VWS V14.01,2013-04-24 22:18:00,
2013-04-24 18:23:00,61.0,49.0,29.78,SW,225,9.4,130.1,65,0.00,,---,0.00,VWS V14.01,2013-04-24 22:23:00,
2013-04-24 18:28:00,60.7,49.1,29.78,SSW,205,9.8,130.1,66,0.00,,---,0.00,VWS V14.01,2013-04-24 22:28:00,
2013-04-24 18:33:00,60.4,49.0,29.79,SSW,207,11.1,130.1,66,0.00,,---,0.00,VWS V14.01,2013-04-24 22:33:00,
2013-04-24 18:38:00,59.5,48.7,29.79,SSW,194,7.6,130.1,67,0.00,,---,0.00,VWS V14.01,2013-04-24 22:38:00,
2013-04-24 18:43:00,59.2,48.8,29.79,East,80,15.3,130.1,68,0.00,,---,0.00,VWS V14.01,2013-04-24 22:43:00,
2013-04-24 18:48:00,58.4,48.4,29.79,South,187,7.1,130.1,69,0.00,,---,0.00,VWS V14.01,2013-04-24 22:48:00,
2013-04-24 18:53:00,58.6,48.8,29.79,SW,219,15.0,130.1,70,0.00,,---,0.00,VWS V14.01,2013-04-24 22:53:00,
2013-04-24 18:58:00,58.2,48.7,29.79,East,82,9.7,130.1,71,0.00,,---,0.00,VWS V14.01,2013-04-24 22:58:00,
2013-04-24 19:03:00,58.0,48.7,29.79,SW,225,3.4,130.1,71,0.00,,---,0.00,VWS V14.01,2013-04-24 23:03:00,
2013-04-24 19:08:00,58.0,48.9,29.80,SSW,193,9.8,130.1,72,0.00,,---,0.00,VWS V14.01,2013-04-24 23:08:00,
2013-04-24 19:13:00,57.3,48.3,29.80,South,183,5.8,130.1,72,0.00,,---,0.00,VWS V14.01,2013-04-24 23:13:00,
2013-04-24 19:18:00,57.0,48.0,29.79,SW,217,4.9,130.1,72,0.00,,---,0.00,VWS V14.01,2013-04-24 23:18:00,
2013-04-24 19:23:00,56.6,47.6,29.79,SW,214,19.4,130.1,72,0.00,,---,0.00,VWS V14.01,2013-04-24 23:23:00,
2013-04-24 19:28:00,56.4,47.6,29.78,SSW,198,11.6,130.1,72,0.00,,---,0.00,VWS V14.01,2013-04-24 23:28:00,
2013-04-24 19:33:00,56.7,48.1,29.78,SSW,204,9.4,130.1,73,0.00,,---,0.00,VWS V14.01,2013-04-24 23:33:00,
2013-04-24 19:38:00,56.0,47.7,29.78,South,180,20.6,130.1,74,0.00,,---,0.00,VWS V14.01,2013-04-24 23:38:00,
2013-04-24 19:43:00,56.2,48.0,29.78,SSW,195,9.3,130.1,74,0.00,,---,0.00,VWS V14.01,2013-04-24 23:43:00,
2013-04-24 19:48:00,56.2,48.2,29.79,SW,225,7.5,130.1,74,0.00,,---,0.00,VWS V14.01,2013-04-24 23:48:00,
2013-04-24 19:53:00,56.2,48.3,29.79,WSW,245,5.1,130.1,75,0.00,,---,0.00,VWS V14.01,2013-04-24 23:53:00,
2013-04-24 19:58:00,55.8,48.1,29.79,SSW,212,3.9,130.1,75,0.00,,---,0.00,VWS V14.01,2013-04-24 23:58:00,
2013-04-24 20:03:00,55.7,48.4,29.79,SSW,198,5.3,130.1,76,0.00,,---,0.00,VWS V14.01,2013-04-25 00:03:00,
2013-04-24 20:08:00,55.3,48.4,29.80,WSW,253,7.0,130.1,77,0.00,,---,0.00,VWS V14.01,2013-04-25 00:08:00,
2013-04-24 20:13:00,55.3,48.5,29.80,SSW,201,8.6,130.1,78,0.00,,---,0.00,VWS V14.01,2013-04-25 00:13:00,
2013-04-24 20:18:00,55.4,48.7,29.81,West,262,1.4,130.1,78,0.00,,---,0.00,VWS V14.01,2013-04-25 00:18:00,
2013-04-24 20:23:00,55.8,49.2,29.81,SSW,205,5.3,130.1,78,0.00,,---,0.00,VWS V14.01,2013-04-25 00:23:00,
2013-04-24 20:28:00,55.4,48.9,29.82,SW,229,7.3,130.1,79,0.00,,---,0.00,VWS V14.01,2013-04-25 00:28:00,
2013-04-24 20:33:00,55.7,49.3,29.82,ESE,118,6.8,130.1,79,0.00,,---,0.00,VWS V14.01,2013-04-25 00:33:00,
2013-04-24 20:38:00,56.1,49.7,29.82,WSW,240,2.9,130.1,79,0.00,,---,0.00,VWS V14.01,2013-04-25 00:38:00,
2013-04-24 20:43:00,56.0,49.6,29.82,SSW,208,4.8,130.1,79,0.00,,---,0.00,VWS V14.01,2013-04-25 00:43:00,
2013-04-24 20:48:00,55.8,49.4,29.82,SSW,205,2.1,130.1,79,0.00,,---,0.00,VWS V14.01,2013-04-25 00:48:00,
2013-04-24 20:52:00,56.6,50.2,29.83,SW,228,1.2,130.1,79,0.00,,---,0.00,VWS V14.01,2013-04-25 00:52:00,
2013-04-24 20:57:00,56.0,49.8,29.83,SSW,211,4.8,130.1,80,0.00,,---,0.00,VWS V14.01,2013-04-25 00:57:00,
2013-04-24 21:02:00,56.3,50.0,29.83,WSW,238,2.4,130.1,79,0.00,,---,0.00,VWS V14.01,2013-04-25 01:02:00,
2013-04-24 21:07:00,56.6,50.3,29.83,SSW,208,5.1,130.1,80,0.00,,---,0.00,VWS V14.01,2013-04-25 01:07:00,
2013-04-24 21:12:00,56.5,50.2,29.83,SSW,198,3.3,130.1,79,0.00,,---,0.00,VWS V14.01,2013-04-25 01:12:00,
2013-04-24 21:17:00,56.6,50.4,29.83,SW,217,4.4,130.1,80,0.00,,---,0.00,VWS V14.01,2013-04-25 01:17:00,
2013-04-24 21:22:00,56.5,50.3,29.83,WSW,238,3.9,130.1,80,0.00,,---,0.00,VWS V14.01,2013-04-25 01:22:00,
2013-04-24 21:23:00,56.1,50.8,29.82,SSW,194,3.8,130.1,82,0.00,,---,0.00,VWS V14.01,2013-04-25 01:23:00,
2013-04-24 21:27:00,56.3,50.0,29.83,SW,214,7.6,130.1,80,0.00,,---,0.00,VWS V14.01,2013-04-25 01:27:00,
2013-04-24 21:32:00,56.7,50.4,29.83,SSE,159,5.7,130.1,79,0.00,,---,0.00,VWS V14.01,2013-04-25 01:32:00,
2013-04-24 21:37:00,56.6,50.3,29.84,SW,219,4.4,130.1,79,0.00,,---,0.00,VWS V14.01,2013-04-25 01:37:00,
2013-04-24 21:42:00,57.0,50.6,29.84,South,184,4.7,130.1,79,0.00,,---,0.00,VWS V14.01,2013-04-25 01:42:00,
2013-04-24 21:47:00,56.9,50.6,29.83,SSW,201,7.4,130.1,79,0.00,,---,0.00,VWS V14.01,2013-04-25 01:47:00,
2013-04-24 21:52:00,56.8,50.6,29.83,SW,233,8.9,130.1,80,0.00,,---,0.00,VWS V14.01,2013-04-25 01:52:00,
2013-04-24 21:57:00,56.8,50.6,29.83,South,190,7.0,130.1,80,0.00,,---,0.00,VWS V14.01,2013-04-25 01:57:00,
2013-04-24 22:02:00,56.9,50.9,29.83,SSW,198,8.1,130.1,80,0.00,,---,0.00,VWS V14.01,2013-04-25 02:02:00,
2013-04-24 22:07:00,57.1,51.1,29.82,SW,214,8.8,130.1,80,0.00,,---,0.00,VWS V14.01,2013-04-25 02:07:00,
2013-04-24 22:12:00,56.5,50.5,29.83,SSW,197,7.6,130.1,80,0.00,,---,0.00,VWS V14.01,2013-04-25 02:12:00,
2013-04-24 22:17:00,56.9,51.0,29.82,SSW,202,5.2,130.1,81,0.00,,---,0.00,VWS V14.01,2013-04-25 02:17:00,
2013-04-24 22:22:00,56.4,50.6,29.82,SSW,200,10.9,130.1,81,0.00,,---,0.00,VWS V14.01,2013-04-25 02:22:00,
2013-04-24 22:27:00,56.7,50.9,29.82,SW,225,5.0,130.1,81,0.00,,---,0.00,VWS V14.01,2013-04-25 02:27:00,
2013-04-24 22:32:00,56.8,51.1,29.82,SSW,195,13.9,130.1,81,0.00,,---,0.00,VWS V14.01,2013-04-25 02:32:00,
2013-04-24 22:37:00,56.6,50.9,29.82,SW,224,8.6,130.1,81,0.00,,---,0.00,VWS V14.01,2013-04-25 02:37:00,
2013-04-24 22:42:00,56.3,50.6,29.82,South,176,11.5,130.1,81,0.00,,---,0.00,VWS V14.01,2013-04-25 02:42:00,
2013-04-24 22:47:00,56.4,50.8,29.82,WSW,243,5.8,130.1,81,0.00,,---,0.00,VWS V14.01,2013-04-25 02:47:00,
2013-04-24 22:52:00,56.5,51.0,29.82,South,186,6.3,130.1,82,0.00,,---,0.00,VWS V14.01,2013-04-25 02:52:00,
2013-04-24 22:57:00,56.1,50.6,29.82,SSW,201,8.1,130.1,82,0.00,,---,0.00,VWS V14.01,2013-04-25 02:57:00,
2013-04-24 23:02:00,56.1,50.7,29.82,South,173,9.6,130.1,82,0.00,,---,0.00,VWS V14.01,2013-04-25 03:02:00,
2013-04-24 23:07:00,56.1,50.8,29.82,East,98,10.7,130.1,82,0.00,,---,0.00,VWS V14.01,2013-04-25 03:07:00,
2013-04-24 23:12:00,56.2,50.9,29.82,SW,214,6.9,130.1,82,0.00,,---,0.00,VWS V14.01,2013-04-25 03:12:00,
2013-04-24 23:17:00,55.7,50.5,29.82,SSW,210,4.9,130.1,83,0.00,,---,0.00,VWS V14.01,2013-04-25 03:17:00,
2013-04-24 23:22:00,56.0,50.8,29.82,SSW,195,5.5,130.1,83,0.00,,---,0.00,VWS V14.01,2013-04-25 03:22:00,
2013-04-24 23:27:00,56.5,51.3,29.83,WSW,246,4.7,130.1,83,0.00,,---,0.00,VWS V14.01,2013-04-25 03:27:00,
2013-04-24 23:32:00,56.3,51.2,29.84,SW,228,3.4,130.1,83,0.00,,---,0.00,VWS V14.01,2013-04-25 03:32:00,
2013-04-24 23:37:00,56.1,51.0,29.84,West,264,5.5,130.1,83,0.00,,---,0.00,VWS V14.01,2013-04-25 03:37:00,
2013-04-24 23:42:00,55.9,50.8,29.84,WSW,245,3.2,130.1,83,0.00,,---,0.00,VWS V14.01,2013-04-25 03:42:00,
2013-04-24 23:47:00,56.0,51.0,29.84,SW,229,7.0,130.1,83,0.00,,---,0.00,VWS V14.01,2013-04-25 03:47:00,
2013-04-24 23:52:00,55.8,50.8,29.83,WSW,238,7.8,130.1,83,0.00,,---,0.00,VWS V14.01,2013-04-25 03:52:00,
2013-04-24 23:57:00,56.1,51.1,29.83,SSW,201,3.6,130.1,83,0.00,,---,0.00,VWS V14.01,2013-04-25 03:57:00,